sensor_id;sensor_type;location;lat;lon;timestamp;temperature;humidity
83553;DHT22;73510;50.866;5.420;2024-03-08T00:00:23;5.70;60.80
83553;DHT22;73510;50.866;5.420;2024-03-08T00:02:49;5.60;60.80
83553;DHT22;73510;50.866;5.420;2024-03-08T00:05:17;5.60;60.80
83553;DHT22;73510;50.866;5.420;2024-03-08T00:07:44;5.60;60.80
83553;DHT22;73510;50.866;5.420;2024-03-08T00:10:11;5.60;60.70
83553;DHT22;73510;50.866;5.420;2024-03-08T00:12:41;5.60;60.80
83553;DHT22;73510;50.866;5.420;2024-03-08T00:15:10;5.50;60.70
83553;DHT22;73510;50.866;5.420;2024-03-08T00:17:40;5.50;60.70
83553;DHT22;73510;50.866;5.420;2024-03-08T00:20:06;5.50;60.70
83553;DHT22;73510;50.866;5.420;2024-03-08T00:22:40;5.50;60.70
83553;DHT22;73510;50.866;5.420;2024-03-08T00:25:07;5.50;60.70
83553;DHT22;73510;50.866;5.420;2024-03-08T00:27:36;5.50;60.50
83553;DHT22;73510;50.866;5.420;2024-03-08T00:30:03;5.50;60.60
83553;DHT22;73510;50.866;5.420;2024-03-08T00:32:29;5.40;60.60
83553;DHT22;73510;50.866;5.420;2024-03-08T00:34:57;5.30;60.40
83553;DHT22;73510;50.866;5.420;2024-03-08T00:37:23;5.30;60.40
83553;DHT22;73510;50.866;5.420;2024-03-08T00:39:52;5.30;60.50
83553;DHT22;73510;50.866;5.420;2024-03-08T00:42:19;5.30;60.40
83553;DHT22;73510;50.866;5.420;2024-03-08T00:44:45;5.30;60.60
83553;DHT22;73510;50.866;5.420;2024-03-08T00:47:11;5.30;60.50
83553;DHT22;73510;50.866;5.420;2024-03-08T00:49:37;5.20;60.60
83553;DHT22;73510;50.866;5.420;2024-03-08T00:52:04;5.20;60.70
83553;DHT22;73510;50.866;5.420;2024-03-08T00:54:32;5.10;60.80
83553;DHT22;73510;50.866;5.420;2024-03-08T00:56:58;5.10;60.70
83553;DHT22;73510;50.866;5.420;2024-03-08T00:59:25;5.10;60.60
83553;DHT22;73510;50.866;5.420;2024-03-08T01:01:50;5.00;60.80
83553;DHT22;73510;50.866;5.420;2024-03-08T01:04:16;5.00;60.70
83553;DHT22;73510;50.866;5.420;2024-03-08T01:06:42;5.00;60.50
83553;DHT22;73510;50.866;5.420;2024-03-08T01:09:11;5.00;60.60
83553;DHT22;73510;50.866;5.420;2024-03-08T01:11:37;5.00;60.70
83553;DHT22;73510;50.866;5.420;2024-03-08T01:14:03;5.00;60.70
83553;DHT22;73510;50.866;5.420;2024-03-08T01:16:29;5.00;60.70
83553;DHT22;73510;50.866;5.420;2024-03-08T01:18:54;4.90;60.90
83553;DHT22;73510;50.866;5.420;2024-03-08T01:21:20;4.90;60.80
83553;DHT22;73510;50.866;5.420;2024-03-08T01:23:46;4.90;60.90
83553;DHT22;73510;50.866;5.420;2024-03-08T01:26:12;4.90;61.00
83553;DHT22;73510;50.866;5.420;2024-03-08T01:28:41;4.90;61.00
83553;DHT22;73510;50.866;5.420;2024-03-08T01:31:07;4.80;61.10
83553;DHT22;73510;50.866;5.420;2024-03-08T01:33:32;4.70;61.20
83553;DHT22;73510;50.866;5.420;2024-03-08T01:35:58;4.70;61.40
83553;DHT22;73510;50.866;5.420;2024-03-08T01:38:24;4.70;61.30
83553;DHT22;73510;50.866;5.420;2024-03-08T01:40:50;4.70;61.30
83553;DHT22;73510;50.866;5.420;2024-03-08T01:43:20;4.70;61.30
83553;DHT22;73510;50.866;5.420;2024-03-08T01:45:46;4.60;61.40
83553;DHT22;73510;50.866;5.420;2024-03-08T01:48:12;4.60;61.40
83553;DHT22;73510;50.866;5.420;2024-03-08T01:50:40;4.60;61.50
83553;DHT22;73510;50.866;5.420;2024-03-08T01:53:07;4.50;61.50
83553;DHT22;73510;50.866;5.420;2024-03-08T01:55:35;4.50;61.40
83553;DHT22;73510;50.866;5.420;2024-03-08T01:58:04;4.50;61.50
83553;DHT22;73510;50.866;5.420;2024-03-08T02:00:32;4.50;61.60
83553;DHT22;73510;50.866;5.420;2024-03-08T02:02:58;4.50;61.70
83553;DHT22;73510;50.866;5.420;2024-03-08T02:05:24;4.50;61.70
83553;DHT22;73510;50.866;5.420;2024-03-08T02:07:51;4.50;61.60
83553;DHT22;73510;50.866;5.420;2024-03-08T02:10:17;4.50;61.70
83553;DHT22;73510;50.866;5.420;2024-03-08T02:12:43;4.50;61.70
83553;DHT22;73510;50.866;5.420;2024-03-08T02:15:09;4.40;61.80
83553;DHT22;73510;50.866;5.420;2024-03-08T02:17:36;4.40;61.70
83553;DHT22;73510;50.866;5.420;2024-03-08T02:20:02;4.40;61.70
83553;DHT22;73510;50.866;5.420;2024-03-08T02:22:30;4.40;61.70
83553;DHT22;73510;50.866;5.420;2024-03-08T02:24:57;4.40;61.80
83553;DHT22;73510;50.866;5.420;2024-03-08T02:27:24;4.30;61.80
83553;DHT22;73510;50.866;5.420;2024-03-08T02:29:57;4.30;61.90
83553;DHT22;73510;50.866;5.420;2024-03-08T02:32:25;4.30;61.90
83553;DHT22;73510;50.866;5.420;2024-03-08T02:34:51;4.30;61.90
83553;DHT22;73510;50.866;5.420;2024-03-08T02:37:21;4.30;62.10
83553;DHT22;73510;50.866;5.420;2024-03-08T02:39:47;4.20;62.10
83553;DHT22;73510;50.866;5.420;2024-03-08T02:42:12;4.20;62.20
83553;DHT22;73510;50.866;5.420;2024-03-08T02:44:42;4.20;62.10
83553;DHT22;73510;50.866;5.420;2024-03-08T02:47:10;4.20;62.10
83553;DHT22;73510;50.866;5.420;2024-03-08T02:49:36;4.20;62.00
83553;DHT22;73510;50.866;5.420;2024-03-08T02:52:04;4.20;62.10
83553;DHT22;73510;50.866;5.420;2024-03-08T02:54:30;4.20;62.20
83553;DHT22;73510;50.866;5.420;2024-03-08T02:56:56;4.20;62.00
83553;DHT22;73510;50.866;5.420;2024-03-08T02:59:22;4.20;62.20
83553;DHT22;73510;50.866;5.420;2024-03-08T03:01:47;4.10;62.10
83553;DHT22;73510;50.866;5.420;2024-03-08T03:04:13;4.10;62.20
83553;DHT22;73510;50.866;5.420;2024-03-08T03:06:39;4.10;62.20
83553;DHT22;73510;50.866;5.420;2024-03-08T03:09:05;4.10;62.20
83553;DHT22;73510;50.866;5.420;2024-03-08T03:11:32;4.10;62.20
83553;DHT22;73510;50.866;5.420;2024-03-08T03:13:57;4.10;62.30
83553;DHT22;73510;50.866;5.420;2024-03-08T03:16:23;4.10;62.30
83553;DHT22;73510;50.866;5.420;2024-03-08T03:18:49;4.10;62.30
83553;DHT22;73510;50.866;5.420;2024-03-08T03:21:15;4.00;62.30
83553;DHT22;73510;50.866;5.420;2024-03-08T03:23:41;4.00;62.40
83553;DHT22;73510;50.866;5.420;2024-03-08T03:26:09;4.00;62.50
83553;DHT22;73510;50.866;5.420;2024-03-08T03:28:39;4.00;62.30
83553;DHT22;73510;50.866;5.420;2024-03-08T03:31:07;4.00;62.50
83553;DHT22;73510;50.866;5.420;2024-03-08T03:33:33;4.00;62.40
83553;DHT22;73510;50.866;5.420;2024-03-08T03:36:03;4.00;62.40
83553;DHT22;73510;50.866;5.420;2024-03-08T03:38:30;4.00;62.50
83553;DHT22;73510;50.866;5.420;2024-03-08T03:40:56;3.90;62.50
83553;DHT22;73510;50.866;5.420;2024-03-08T03:43:23;3.90;62.50
83553;DHT22;73510;50.866;5.420;2024-03-08T03:45:49;3.90;62.50
83553;DHT22;73510;50.866;5.420;2024-03-08T03:48:15;3.90;62.60
83553;DHT22;73510;50.866;5.420;2024-03-08T03:50:41;3.90;62.50
83553;DHT22;73510;50.866;5.420;2024-03-08T03:53:08;3.90;62.50
83553;DHT22;73510;50.866;5.420;2024-03-08T03:55:34;3.90;62.50
83553;DHT22;73510;50.866;5.420;2024-03-08T03:58:00;3.90;62.60
83553;DHT22;73510;50.866;5.420;2024-03-08T04:00:27;3.90;62.60
83553;DHT22;73510;50.866;5.420;2024-03-08T04:02:53;3.90;62.60
83553;DHT22;73510;50.866;5.420;2024-03-08T04:05:18;3.90;62.80
83553;DHT22;73510;50.866;5.420;2024-03-08T04:07:45;3.90;62.90
83553;DHT22;73510;50.866;5.420;2024-03-08T04:10:11;3.80;62.90
83553;DHT22;73510;50.866;5.420;2024-03-08T04:12:37;3.80;62.90
83553;DHT22;73510;50.866;5.420;2024-03-08T04:15:04;3.70;62.80
83553;DHT22;73510;50.866;5.420;2024-03-08T04:17:35;3.70;62.80
83553;DHT22;73510;50.866;5.420;2024-03-08T04:20:03;3.70;62.70
83553;DHT22;73510;50.866;5.420;2024-03-08T04:22:37;3.70;62.80
83553;DHT22;73510;50.866;5.420;2024-03-08T04:25:03;3.70;62.80
83553;DHT22;73510;50.866;5.420;2024-03-08T04:27:29;3.70;62.80
83553;DHT22;73510;50.866;5.420;2024-03-08T04:29:56;3.70;62.90
83553;DHT22;73510;50.866;5.420;2024-03-08T04:32:22;3.70;62.90
83553;DHT22;73510;50.866;5.420;2024-03-08T04:34:48;3.70;62.80
83553;DHT22;73510;50.866;5.420;2024-03-08T04:37:14;3.70;62.90
83553;DHT22;73510;50.866;5.420;2024-03-08T04:39:42;3.60;63.00
83553;DHT22;73510;50.866;5.420;2024-03-08T04:42:08;3.60;63.00
83553;DHT22;73510;50.866;5.420;2024-03-08T04:44:36;3.60;63.00
83553;DHT22;73510;50.866;5.420;2024-03-08T04:47:03;3.60;63.00
83553;DHT22;73510;50.866;5.420;2024-03-08T04:49:32;3.60;63.00
83553;DHT22;73510;50.866;5.420;2024-03-08T04:52:03;3.60;63.00
83553;DHT22;73510;50.866;5.420;2024-03-08T04:54:30;3.60;63.00
83553;DHT22;73510;50.866;5.420;2024-03-08T04:56:56;3.60;63.00
83553;DHT22;73510;50.866;5.420;2024-03-08T04:59:21;3.60;63.20
83553;DHT22;73510;50.866;5.420;2024-03-08T05:01:47;3.50;63.20
83553;DHT22;73510;50.866;5.420;2024-03-08T05:04:13;3.50;63.20
83553;DHT22;73510;50.866;5.420;2024-03-08T05:06:41;3.50;63.20
83553;DHT22;73510;50.866;5.420;2024-03-08T05:09:07;3.50;63.20
83553;DHT22;73510;50.866;5.420;2024-03-08T05:11:40;3.50;63.20
83553;DHT22;73510;50.866;5.420;2024-03-08T05:14:06;3.50;63.20
83553;DHT22;73510;50.866;5.420;2024-03-08T05:16:32;3.50;63.10
83553;DHT22;73510;50.866;5.420;2024-03-08T05:18:57;3.50;63.20
83553;DHT22;73510;50.866;5.420;2024-03-08T05:21:23;3.50;63.20
83553;DHT22;73510;50.866;5.420;2024-03-08T05:23:49;3.50;63.20
83553;DHT22;73510;50.866;5.420;2024-03-08T05:26:16;3.50;63.20
83553;DHT22;73510;50.866;5.420;2024-03-08T05:28:42;3.50;63.40
83553;DHT22;73510;50.866;5.420;2024-03-08T05:31:08;3.50;63.40
83553;DHT22;73510;50.866;5.420;2024-03-08T05:33:34;3.50;63.30
83553;DHT22;73510;50.866;5.420;2024-03-08T05:36:00;3.50;63.30
83553;DHT22;73510;50.866;5.420;2024-03-08T05:38:29;3.50;63.30
83553;DHT22;73510;50.866;5.420;2024-03-08T05:40:55;3.50;63.20
83553;DHT22;73510;50.866;5.420;2024-03-08T05:43:20;3.50;63.20
83553;DHT22;73510;50.866;5.420;2024-03-08T05:45:47;3.50;63.20
83553;DHT22;73510;50.866;5.420;2024-03-08T05:48:13;3.50;63.30
83553;DHT22;73510;50.866;5.420;2024-03-08T05:50:39;3.50;63.20
83553;DHT22;73510;50.866;5.420;2024-03-08T05:53:05;3.50;63.20
83553;DHT22;73510;50.866;5.420;2024-03-08T05:55:32;3.50;63.20
83553;DHT22;73510;50.866;5.420;2024-03-08T05:58:01;3.50;63.10
83553;DHT22;73510;50.866;5.420;2024-03-08T06:00:27;3.50;63.00
83553;DHT22;73510;50.866;5.420;2024-03-08T06:02:53;3.50;63.00
83553;DHT22;73510;50.866;5.420;2024-03-08T06:05:18;3.50;63.00
83553;DHT22;73510;50.866;5.420;2024-03-08T06:07:45;3.50;63.10
83553;DHT22;73510;50.866;5.420;2024-03-08T06:10:11;3.50;63.00
83553;DHT22;73510;50.866;5.420;2024-03-08T06:12:40;3.60;62.80
83553;DHT22;73510;50.866;5.420;2024-03-08T06:15:07;3.60;62.70
83553;DHT22;73510;50.866;5.420;2024-03-08T06:17:34;3.60;62.80
83553;DHT22;73510;50.866;5.420;2024-03-08T06:20:01;3.60;62.70
83553;DHT22;73510;50.866;5.420;2024-03-08T06:22:26;3.60;62.70
83553;DHT22;73510;50.866;5.420;2024-03-08T06:24:52;3.60;62.50
83553;DHT22;73510;50.866;5.420;2024-03-08T06:27:19;3.70;62.50
83553;DHT22;73510;50.866;5.420;2024-03-08T06:29:46;3.70;62.50
83553;DHT22;73510;50.866;5.420;2024-03-08T06:32:14;3.70;62.30
83553;DHT22;73510;50.866;5.420;2024-03-08T06:34:41;3.80;62.20
83553;DHT22;73510;50.866;5.420;2024-03-08T06:37:06;3.90;62.30
83553;DHT22;73510;50.866;5.420;2024-03-08T06:39:32;3.90;62.30
83553;DHT22;73510;50.866;5.420;2024-03-08T06:41:59;3.90;62.20
83553;DHT22;73510;50.866;5.420;2024-03-08T06:44:25;3.90;62.10
83553;DHT22;73510;50.866;5.420;2024-03-08T06:46:51;4.00;61.90
83553;DHT22;73510;50.866;5.420;2024-03-08T06:49:17;4.10;61.80
83553;DHT22;73510;50.866;5.420;2024-03-08T06:51:43;4.30;61.60
83553;DHT22;73510;50.866;5.420;2024-03-08T06:54:08;4.70;60.90
83553;DHT22;73510;50.866;5.420;2024-03-08T06:56:37;4.90;60.70
83553;DHT22;73510;50.866;5.420;2024-03-08T06:59:03;5.30;59.90
83553;DHT22;73510;50.866;5.420;2024-03-08T07:01:30;5.50;58.90
83553;DHT22;73510;50.866;5.420;2024-03-08T07:04:00;5.70;58.30
83553;DHT22;73510;50.866;5.420;2024-03-08T07:06:27;6.00;58.30
83553;DHT22;73510;50.866;5.420;2024-03-08T07:08:54;6.60;57.70
83553;DHT22;73510;50.866;5.420;2024-03-08T07:11:20;7.40;55.90
83553;DHT22;73510;50.866;5.420;2024-03-08T07:13:47;8.00;54.70
83553;DHT22;73510;50.866;5.420;2024-03-08T07:16:12;8.60;53.90
83553;DHT22;73510;50.866;5.420;2024-03-08T07:18:38;9.20;53.00
83553;DHT22;73510;50.866;5.420;2024-03-08T07:21:09;9.70;51.80
83553;DHT22;73510;50.866;5.420;2024-03-08T07:23:36;10.00;51.10
83553;DHT22;73510;50.866;5.420;2024-03-08T07:26:35;10.50;50.60
83553;DHT22;73510;50.866;5.420;2024-03-08T07:29:00;11.10;49.40
83553;DHT22;73510;50.866;5.420;2024-03-08T07:31:26;11.40;48.80
83553;DHT22;73510;50.866;5.420;2024-03-08T07:34:03;11.70;48.40
83553;DHT22;73510;50.866;5.420;2024-03-08T07:36:33;12.10;47.80
83553;DHT22;73510;50.866;5.420;2024-03-08T07:38:59;12.40;47.60
83553;DHT22;73510;50.866;5.420;2024-03-08T07:41:25;12.80;47.00
83553;DHT22;73510;50.866;5.420;2024-03-08T07:43:51;13.10;46.40
83553;DHT22;73510;50.866;5.420;2024-03-08T07:46:17;13.50;46.10
83553;DHT22;73510;50.866;5.420;2024-03-08T07:48:44;13.70;45.70
83553;DHT22;73510;50.866;5.420;2024-03-08T07:51:11;13.90;45.10
83553;DHT22;73510;50.866;5.420;2024-03-08T07:53:38;14.00;45.10
83553;DHT22;73510;50.866;5.420;2024-03-08T07:56:04;14.40;44.80
83553;DHT22;73510;50.866;5.420;2024-03-08T07:58:34;14.80;44.30
83553;DHT22;73510;50.866;5.420;2024-03-08T08:01:00;15.00;44.40
83553;DHT22;73510;50.866;5.420;2024-03-08T08:03:26;15.30;43.20
83553;DHT22;73510;50.866;5.420;2024-03-08T08:05:52;15.30;43.20
83553;DHT22;73510;50.866;5.420;2024-03-08T08:08:19;15.30;43.40
83553;DHT22;73510;50.866;5.420;2024-03-08T08:10:45;15.60;43.40
83553;DHT22;73510;50.866;5.420;2024-03-08T08:13:11;15.80;42.50
83553;DHT22;73510;50.866;5.420;2024-03-08T08:15:36;15.80;42.60
83553;DHT22;73510;50.866;5.420;2024-03-08T08:18:02;15.90;42.80
83553;DHT22;73510;50.866;5.420;2024-03-08T08:20:31;16.20;42.20
83553;DHT22;73510;50.866;5.420;2024-03-08T08:22:57;16.40;42.00
83553;DHT22;73510;50.866;5.420;2024-03-08T08:25:24;16.40;41.90
83553;DHT22;73510;50.866;5.420;2024-03-08T08:27:50;16.60;42.10
83553;DHT22;73510;50.866;5.420;2024-03-08T08:30:16;16.90;41.40
83553;DHT22;73510;50.866;5.420;2024-03-08T08:32:42;17.20;41.00
83553;DHT22;73510;50.866;5.420;2024-03-08T08:35:08;17.20;41.30
83553;DHT22;73510;50.866;5.420;2024-03-08T08:37:34;17.30;41.20
83553;DHT22;73510;50.866;5.420;2024-03-08T08:40:02;17.60;40.60
83553;DHT22;73510;50.866;5.420;2024-03-08T08:42:34;17.60;40.90
83553;DHT22;73510;50.866;5.420;2024-03-08T08:44:59;17.80;40.80
83553;DHT22;73510;50.866;5.420;2024-03-08T08:47:30;18.00;40.20
83553;DHT22;73510;50.866;5.420;2024-03-08T08:49:55;18.20;40.50
83553;DHT22;73510;50.866;5.420;2024-03-08T08:52:21;18.70;39.70
83553;DHT22;73510;50.866;5.420;2024-03-08T08:54:47;19.00;39.40
83553;DHT22;73510;50.866;5.420;2024-03-08T08:57:15;19.10;39.20
83553;DHT22;73510;50.866;5.420;2024-03-08T08:59:41;19.20;39.10
83553;DHT22;73510;50.866;5.420;2024-03-08T09:02:06;19.50;39.70
83553;DHT22;73510;50.866;5.420;2024-03-08T09:04:34;19.90;39.80
83553;DHT22;73510;50.866;5.420;2024-03-08T09:07:01;20.40;39.00
83553;DHT22;73510;50.866;5.420;2024-03-08T09:09:27;20.50;37.80
83553;DHT22;73510;50.866;5.420;2024-03-08T09:11:53;20.70;38.20
83553;DHT22;73510;50.866;5.420;2024-03-08T09:14:20;20.80;38.00
83553;DHT22;73510;50.866;5.420;2024-03-08T09:16:46;21.00;38.10
83553;DHT22;73510;50.866;5.420;2024-03-08T09:19:13;21.50;37.90
83553;DHT22;73510;50.866;5.420;2024-03-08T09:21:38;21.90;37.30
83553;DHT22;73510;50.866;5.420;2024-03-08T09:24:05;22.00;37.60
83553;DHT22;73510;50.866;5.420;2024-03-08T09:26:32;22.30;37.30
83553;DHT22;73510;50.866;5.420;2024-03-08T09:28:59;22.70;37.00
83553;DHT22;73510;50.866;5.420;2024-03-08T09:31:25;23.20;36.40
83553;DHT22;73510;50.866;5.420;2024-03-08T09:33:51;23.30;36.10
83553;DHT22;73510;50.866;5.420;2024-03-08T09:36:17;23.30;36.20
83553;DHT22;73510;50.866;5.420;2024-03-08T09:38:43;23.50;36.70
83553;DHT22;73510;50.866;5.420;2024-03-08T09:41:09;23.60;35.70
83553;DHT22;73510;50.866;5.420;2024-03-08T09:43:38;23.60;36.00
83553;DHT22;73510;50.866;5.420;2024-03-08T09:46:04;24.00;36.20
83553;DHT22;73510;50.866;5.420;2024-03-08T09:48:32;24.30;35.50
83553;DHT22;73510;50.866;5.420;2024-03-08T09:50:58;24.40;35.70
83553;DHT22;73510;50.866;5.420;2024-03-08T09:53:24;24.60;35.50
83553;DHT22;73510;50.866;5.420;2024-03-08T09:55:49;24.60;35.20
83553;DHT22;73510;50.866;5.420;2024-03-08T09:58:16;24.50;35.40
83553;DHT22;73510;50.866;5.420;2024-03-08T10:00:48;24.80;35.40
83553;DHT22;73510;50.866;5.420;2024-03-08T10:03:13;25.00;35.60
83553;DHT22;73510;50.866;5.420;2024-03-08T10:05:42;25.20;34.60
83553;DHT22;73510;50.866;5.420;2024-03-08T10:08:09;25.20;34.40
83553;DHT22;73510;50.866;5.420;2024-03-08T10:10:35;25.20;34.80
83553;DHT22;73510;50.866;5.420;2024-03-08T10:13:01;25.40;35.00
83553;DHT22;73510;50.866;5.420;2024-03-08T10:15:27;25.40;34.90
83553;DHT22;73510;50.866;5.420;2024-03-08T10:17:58;25.50;34.80
83553;DHT22;73510;50.866;5.420;2024-03-08T10:20:24;25.50;34.20
83553;DHT22;73510;50.866;5.420;2024-03-08T10:22:52;25.30;34.50
83553;DHT22;73510;50.866;5.420;2024-03-08T10:25:19;25.30;35.10
83553;DHT22;73510;50.866;5.420;2024-03-08T10:27:45;25.60;35.10
83553;DHT22;73510;50.866;5.420;2024-03-08T10:30:15;25.50;34.70
83553;DHT22;73510;50.866;5.420;2024-03-08T10:32:45;25.50;34.60
83553;DHT22;73510;50.866;5.420;2024-03-08T10:35:11;25.40;34.60
83553;DHT22;73510;50.866;5.420;2024-03-08T10:37:48;25.30;34.60
83553;DHT22;73510;50.866;5.420;2024-03-08T10:40:18;25.30;34.20
83553;DHT22;73510;50.866;5.420;2024-03-08T10:42:57;25.20;35.10
83553;DHT22;73510;50.866;5.420;2024-03-08T10:48:09;25.90;34.80
83553;DHT22;73510;50.866;5.420;2024-03-08T10:50:36;25.80;34.40
83553;DHT22;73510;50.866;5.420;2024-03-08T10:53:06;25.90;34.60
83553;DHT22;73510;50.866;5.420;2024-03-08T10:55:33;25.60;34.80
83553;DHT22;73510;50.866;5.420;2024-03-08T10:57:59;24.50;35.50
83553;DHT22;73510;50.866;5.420;2024-03-08T11:00:26;23.20;36.10
83553;DHT22;73510;50.866;5.420;2024-03-08T11:02:55;22.00;37.10
83553;DHT22;73510;50.866;5.420;2024-03-08T11:05:39;20.80;38.20
83553;DHT22;73510;50.866;5.420;2024-03-08T11:08:17;20.00;38.60
83553;DHT22;73510;50.866;5.420;2024-03-08T11:10:52;19.30;39.80
83553;DHT22;73510;50.866;5.420;2024-03-08T11:15:59;18.20;40.20
83553;DHT22;73510;50.866;5.420;2024-03-08T11:18:26;17.80;41.10
83553;DHT22;73510;50.866;5.420;2024-03-08T11:20:54;17.50;42.40
83553;DHT22;73510;50.866;5.420;2024-03-08T11:23:23;17.20;41.40
83553;DHT22;73510;50.866;5.420;2024-03-08T11:25:49;17.00;42.70
83553;DHT22;73510;50.866;5.420;2024-03-08T11:28:22;16.70;42.70
83553;DHT22;73510;50.866;5.420;2024-03-08T11:33:28;16.30;43.60
83553;DHT22;73510;50.866;5.420;2024-03-08T11:36:12;16.10;43.20
83553;DHT22;73510;50.866;5.420;2024-03-08T11:38:45;16.00;44.30
83553;DHT22;73510;50.866;5.420;2024-03-08T11:41:14;15.80;44.50
83553;DHT22;73510;50.866;5.420;2024-03-08T11:43:41;15.80;44.70
83553;DHT22;73510;50.866;5.420;2024-03-08T11:46:14;15.60;44.50
83553;DHT22;73510;50.866;5.420;2024-03-08T11:48:41;15.50;44.40
83553;DHT22;73510;50.866;5.420;2024-03-08T11:51:15;15.20;45.30
83553;DHT22;73510;50.866;5.420;2024-03-08T11:53:41;15.20;45.80
83553;DHT22;73510;50.866;5.420;2024-03-08T11:56:14;15.20;45.60
83553;DHT22;73510;50.866;5.420;2024-03-08T11:58:40;15.20;46.20
83553;DHT22;73510;50.866;5.420;2024-03-08T12:01:07;15.20;45.50
83553;DHT22;73510;50.866;5.420;2024-03-08T12:03:38;15.10;46.30
83553;DHT22;73510;50.866;5.420;2024-03-08T12:06:04;15.00;45.70
83553;DHT22;73510;50.866;5.420;2024-03-08T12:08:33;15.00;46.20
83553;DHT22;73510;50.866;5.420;2024-03-08T12:10:59;15.00;46.20
83553;DHT22;73510;50.866;5.420;2024-03-08T12:13:29;14.90;46.00
83553;DHT22;73510;50.866;5.420;2024-03-08T12:15:58;14.90;45.60
83553;DHT22;73510;50.866;5.420;2024-03-08T12:18:26;14.90;46.10
83553;DHT22;73510;50.866;5.420;2024-03-08T12:20:52;14.90;46.60
83553;DHT22;73510;50.866;5.420;2024-03-08T12:23:28;14.90;45.70
83553;DHT22;73510;50.866;5.420;2024-03-08T12:25:54;14.80;46.50
83553;DHT22;73510;50.866;5.420;2024-03-08T12:28:20;14.70;46.50
83553;DHT22;73510;50.866;5.420;2024-03-08T12:30:51;14.70;47.00
83553;DHT22;73510;50.866;5.420;2024-03-08T12:33:19;14.70;46.60
83553;DHT22;73510;50.866;5.420;2024-03-08T12:35:52;14.70;47.10
83553;DHT22;73510;50.866;5.420;2024-03-08T12:38:24;14.70;46.30
83553;DHT22;73510;50.866;5.420;2024-03-08T12:40:58;14.60;46.70
83553;DHT22;73510;50.866;5.420;2024-03-08T12:43:24;14.70;46.90
83553;DHT22;73510;50.866;5.420;2024-03-08T12:45:50;14.60;45.90
83553;DHT22;73510;50.866;5.420;2024-03-08T12:48:17;14.60;47.60
83553;DHT22;73510;50.866;5.420;2024-03-08T12:50:43;14.60;47.20
83553;DHT22;73510;50.866;5.420;2024-03-08T12:53:11;14.60;46.10
83553;DHT22;73510;50.866;5.420;2024-03-08T12:55:36;14.60;46.70
83553;DHT22;73510;50.866;5.420;2024-03-08T12:58:02;14.60;45.90
83553;DHT22;73510;50.866;5.420;2024-03-08T13:00:28;14.60;46.10
83553;DHT22;73510;50.866;5.420;2024-03-08T13:02:54;14.60;46.20
83553;DHT22;73510;50.866;5.420;2024-03-08T13:05:21;14.60;47.20
83553;DHT22;73510;50.866;5.420;2024-03-08T13:07:46;14.50;46.90
83553;DHT22;73510;50.866;5.420;2024-03-08T13:10:16;14.50;46.40
83553;DHT22;73510;50.866;5.420;2024-03-08T13:12:42;14.50;48.00
83553;DHT22;73510;50.866;5.420;2024-03-08T13:15:09;14.50;47.50
83553;DHT22;73510;50.866;5.420;2024-03-08T13:17:47;14.50;46.90
83553;DHT22;73510;50.866;5.420;2024-03-08T13:20:14;14.40;47.30
83553;DHT22;73510;50.866;5.420;2024-03-08T13:22:45;14.40;46.90
83553;DHT22;73510;50.866;5.420;2024-03-08T13:25:11;14.40;46.90
83553;DHT22;73510;50.866;5.420;2024-03-08T13:27:40;14.40;46.70
83553;DHT22;73510;50.866;5.420;2024-03-08T13:30:09;14.40;47.00
83553;DHT22;73510;50.866;5.420;2024-03-08T13:32:41;14.40;46.90
83553;DHT22;73510;50.866;5.420;2024-03-08T13:35:09;14.30;47.00
83553;DHT22;73510;50.866;5.420;2024-03-08T13:37:41;14.30;48.00
83553;DHT22;73510;50.866;5.420;2024-03-08T13:40:08;14.30;47.30
83553;DHT22;73510;50.866;5.420;2024-03-08T13:42:39;14.30;47.70
83553;DHT22;73510;50.866;5.420;2024-03-08T13:45:07;14.30;46.70
83553;DHT22;73510;50.866;5.420;2024-03-08T13:47:34;14.20;47.70
83553;DHT22;73510;50.866;5.420;2024-03-08T13:50:01;14.20;47.30
83553;DHT22;73510;50.866;5.420;2024-03-08T13:52:27;14.20;47.90
83553;DHT22;73510;50.866;5.420;2024-03-08T13:54:55;14.20;47.20
83553;DHT22;73510;50.866;5.420;2024-03-08T13:57:21;14.20;47.50
83553;DHT22;73510;50.866;5.420;2024-03-08T13:59:48;14.20;47.20
83553;DHT22;73510;50.866;5.420;2024-03-08T14:02:16;14.10;47.00
83553;DHT22;73510;50.866;5.420;2024-03-08T14:04:42;14.10;46.90
83553;DHT22;73510;50.866;5.420;2024-03-08T14:07:09;14.10;47.40
83553;DHT22;73510;50.866;5.420;2024-03-08T14:09:37;14.10;47.40
83553;DHT22;73510;50.866;5.420;2024-03-08T14:12:08;14.00;47.50
83553;DHT22;73510;50.866;5.420;2024-03-08T14:14:35;14.00;48.20
83553;DHT22;73510;50.866;5.420;2024-03-08T14:17:01;14.00;47.20
83553;DHT22;73510;50.866;5.420;2024-03-08T14:19:28;14.00;48.30
83553;DHT22;73510;50.866;5.420;2024-03-08T14:21:54;14.00;46.90
83553;DHT22;73510;50.866;5.420;2024-03-08T14:24:20;13.90;47.70
83553;DHT22;73510;50.866;5.420;2024-03-08T14:26:45;14.00;47.50
83553;DHT22;73510;50.866;5.420;2024-03-08T14:29:14;13.90;48.00
83553;DHT22;73510;50.866;5.420;2024-03-08T14:31:40;13.90;47.90
83553;DHT22;73510;50.866;5.420;2024-03-08T14:34:08;13.90;47.50
83553;DHT22;73510;50.866;5.420;2024-03-08T14:36:34;13.90;48.00
83553;DHT22;73510;50.866;5.420;2024-03-08T14:39:00;13.90;47.50
83553;DHT22;73510;50.866;5.420;2024-03-08T14:41:26;13.90;47.40
83553;DHT22;73510;50.866;5.420;2024-03-08T14:43:52;13.90;47.90
83553;DHT22;73510;50.866;5.420;2024-03-08T14:46:19;13.90;47.80
83553;DHT22;73510;50.866;5.420;2024-03-08T14:48:49;13.90;48.60
83553;DHT22;73510;50.866;5.420;2024-03-08T14:51:19;13.80;47.90
83553;DHT22;73510;50.866;5.420;2024-03-08T14:53:47;13.80;48.50
83553;DHT22;73510;50.866;5.420;2024-03-08T14:56:15;13.70;48.00
83553;DHT22;73510;50.866;5.420;2024-03-08T14:58:46;13.70;47.90
83553;DHT22;73510;50.866;5.420;2024-03-08T15:01:15;13.70;47.90
83553;DHT22;73510;50.866;5.420;2024-03-08T15:03:41;13.70;48.00
83553;DHT22;73510;50.866;5.420;2024-03-08T15:06:11;13.70;48.60
83553;DHT22;73510;50.866;5.420;2024-03-08T15:08:38;13.60;48.30
83553;DHT22;73510;50.866;5.420;2024-03-08T15:11:05;13.60;48.40
83553;DHT22;73510;50.866;5.420;2024-03-08T15:13:35;13.60;48.50
83553;DHT22;73510;50.866;5.420;2024-03-08T15:16:10;13.60;47.70
83553;DHT22;73510;50.866;5.420;2024-03-08T15:18:42;13.60;48.40
83553;DHT22;73510;50.866;5.420;2024-03-08T15:21:12;13.60;47.90
83553;DHT22;73510;50.866;5.420;2024-03-08T15:23:43;13.50;48.00
83553;DHT22;73510;50.866;5.420;2024-03-08T15:26:13;13.50;48.90
83553;DHT22;73510;50.866;5.420;2024-03-08T15:28:39;13.50;48.20
83553;DHT22;73510;50.866;5.420;2024-03-08T15:31:06;13.50;48.20
83553;DHT22;73510;50.866;5.420;2024-03-08T15:33:33;13.50;47.90
83553;DHT22;73510;50.866;5.420;2024-03-08T15:35:59;13.50;47.90
83553;DHT22;73510;50.866;5.420;2024-03-08T15:38:26;13.40;47.60
83553;DHT22;73510;50.866;5.420;2024-03-08T15:40:55;13.30;47.90
83553;DHT22;73510;50.866;5.420;2024-03-08T15:43:23;13.40;48.50
83553;DHT22;73510;50.866;5.420;2024-03-08T15:45:51;13.30;47.30